Edenville, Michigan
Current Conditions -  °F | °C
As of 5:12 PM on Tuesday 21 Oct 2014 (Local Time) from KIKW Reporting Station
Clear Clear  
Wind Chill: 51°   Ceiling: Unl
Heat Index: 51°   Visibility: 10mi
Dew Point: 35°   Wind: 5mph
Humidity: 53%   Direction: 50°NE
Pressure: 30.15"   Gusts: NA
Location:  43.8°N, 84.38°W
Report Text: KIKW 212112Z AUTO 05004KT 10SM CLR 11/02 A3015 RMK AO2 T01070015
Loading
Personal Weather Stations






























Interactive Weather Map New forecast layout! Learn more

10-Day Weather Forecast

Advertisements
Track Severe Weather on mobile